sensor_id;sensor_type;location;lat;lon;timestamp;temperature;humidity
11963;DHT22;6041;52.130;5.584;2022-07-17T00:00:20;13.30;99.90
11963;DHT22;6041;52.130;5.584;2022-07-17T00:02:46;13.30;99.90
11963;DHT22;6041;52.130;5.584;2022-07-17T00:05:15;13.30;99.90
11963;DHT22;6041;52.130;5.584;2022-07-17T00:07:42;13.30;99.90
11963;DHT22;6041;52.130;5.584;2022-07-17T00:10:09;13.20;99.90
11963;DHT22;6041;52.130;5.584;2022-07-17T00:12:36;13.10;99.90
11963;DHT22;6041;52.130;5.584;2022-07-17T00:15:03;13.10;99.90
11963;DHT22;6041;52.130;5.584;2022-07-17T00:17:30;13.10;99.90
11963;DHT22;6041;52.130;5.584;2022-07-17T00:19:57;13.10;99.90
11963;DHT22;6041;52.130;5.584;2022-07-17T00:22:25;13.10;99.90
11963;DHT22;6041;52.130;5.584;2022-07-17T00:24:53;13.10;99.90
11963;DHT22;6041;52.130;5.584;2022-07-17T00:27:20;13.00;99.90
11963;DHT22;6041;52.130;5.584;2022-07-17T00:29:46;12.90;99.90
11963;DHT22;6041;52.130;5.584;2022-07-17T00:32:13;12.90;99.90
11963;DHT22;6041;52.130;5.584;2022-07-17T00:34:40;12.90;99.90
11963;DHT22;6041;52.130;5.584;2022-07-17T00:37:06;12.80;99.90
11963;DHT22;6041;52.130;5.584;2022-07-17T00:39:34;12.80;99.90
11963;DHT22;6041;52.130;5.584;2022-07-17T00:42:01;12.80;99.90
11963;DHT22;6041;52.130;5.584;2022-07-17T00:44:28;12.70;99.90
11963;DHT22;6041;52.130;5.584;2022-07-17T00:46:55;12.70;99.90
11963;DHT22;6041;52.130;5.584;2022-07-17T00:49:21;12.70;99.90
11963;DHT22;6041;52.130;5.584;2022-07-17T00:51:48;12.70;99.90
11963;DHT22;6041;52.130;5.584;2022-07-17T00:54:15;12.70;99.90
11963;DHT22;6041;52.130;5.584;2022-07-17T00:56:46;12.60;99.90
11963;DHT22;6041;52.130;5.584;2022-07-17T00:59:15;12.60;99.90
11963;DHT22;6041;52.130;5.584;2022-07-17T01:01:42;12.60;99.90
11963;DHT22;6041;52.130;5.584;2022-07-17T01:04:09;12.60;99.90
11963;DHT22;6041;52.130;5.584;2022-07-17T01:06:35;12.50;99.90
11963;DHT22;6041;52.130;5.584;2022-07-17T01:09:02;12.50;99.90
11963;DHT22;6041;52.130;5.584;2022-07-17T01:11:29;12.50;99.90
11963;DHT22;6041;52.130;5.584;2022-07-17T01:13:58;12.50;99.90
11963;DHT22;6041;52.130;5.584;2022-07-17T01:16:25;12.40;99.90
11963;DHT22;6041;52.130;5.584;2022-07-17T01:18:52;12.30;99.90
11963;DHT22;6041;52.130;5.584;2022-07-17T01:21:21;12.30;99.90
11963;DHT22;6041;52.130;5.584;2022-07-17T01:23:47;12.30;99.90
11963;DHT22;6041;52.130;5.584;2022-07-17T01:26:14;12.20;99.90
11963;DHT22;6041;52.130;5.584;2022-07-17T01:28:41;12.20;99.90
11963;DHT22;6041;52.130;5.584;2022-07-17T01:31:08;12.20;99.90
11963;DHT22;6041;52.130;5.584;2022-07-17T01:33:35;12.20;99.90
11963;DHT22;6041;52.130;5.584;2022-07-17T01:36:01;12.20;99.90
11963;DHT22;6041;52.130;5.584;2022-07-17T01:38:30;12.10;99.90
11963;DHT22;6041;52.130;5.584;2022-07-17T01:40:56;12.10;99.90
11963;DHT22;6041;52.130;5.584;2022-07-17T01:43:23;12.10;99.90
11963;DHT22;6041;52.130;5.584;2022-07-17T01:45:50;12.10;99.90
11963;DHT22;6041;52.130;5.584;2022-07-17T01:48:27;12.00;99.90
11963;DHT22;6041;52.130;5.584;2022-07-17T01:50:55;12.00;99.90
11963;DHT22;6041;52.130;5.584;2022-07-17T01:53:21;12.00;99.90
11963;DHT22;6041;52.130;5.584;2022-07-17T01:55:50;12.00;99.90
11963;DHT22;6041;52.130;5.584;2022-07-17T01:58:16;12.00;99.90
11963;DHT22;6041;52.130;5.584;2022-07-17T02:00:44;11.90;99.90
11963;DHT22;6041;52.130;5.584;2022-07-17T02:03:10;12.00;99.90
11963;DHT22;6041;52.130;5.584;2022-07-17T02:05:37;12.00;99.90
11963;DHT22;6041;52.130;5.584;2022-07-17T02:08:04;12.00;99.90
11963;DHT22;6041;52.130;5.584;2022-07-17T02:10:32;12.00;99.90
11963;DHT22;6041;52.130;5.584;2022-07-17T02:13:00;12.00;99.90
11963;DHT22;6041;52.130;5.584;2022-07-17T02:15:27;11.90;99.90
11963;DHT22;6041;52.130;5.584;2022-07-17T02:17:54;11.90;99.90
11963;DHT22;6041;52.130;5.584;2022-07-17T02:20:21;11.80;99.90
11963;DHT22;6041;52.130;5.584;2022-07-17T02:22:48;11.80;99.90
11963;DHT22;6041;52.130;5.584;2022-07-17T02:25:15;11.70;99.90
11963;DHT22;6041;52.130;5.584;2022-07-17T02:27:42;11.70;99.90
11963;DHT22;6041;52.130;5.584;2022-07-17T02:30:12;11.70;99.90
11963;DHT22;6041;52.130;5.584;2022-07-17T02:32:40;11.70;99.90
11963;DHT22;6041;52.130;5.584;2022-07-17T02:35:09;11.60;99.90
11963;DHT22;6041;52.130;5.584;2022-07-17T02:37:36;11.60;99.90
11963;DHT22;6041;52.130;5.584;2022-07-17T02:40:04;11.60;99.90
11963;DHT22;6041;52.130;5.584;2022-07-17T02:42:31;11.60;99.90
11963;DHT22;6041;52.130;5.584;2022-07-17T02:44:58;11.50;99.90
11963;DHT22;6041;52.130;5.584;2022-07-17T02:47:28;11.50;99.90
11963;DHT22;6041;52.130;5.584;2022-07-17T02:49:56;11.40;99.90
11963;DHT22;6041;52.130;5.584;2022-07-17T02:52:23;11.40;99.90
11963;DHT22;6041;52.130;5.584;2022-07-17T02:54:50;11.40;99.90
11963;DHT22;6041;52.130;5.584;2022-07-17T02:57:17;11.40;99.90
11963;DHT22;6041;52.130;5.584;2022-07-17T02:59:44;11.40;99.90
11963;DHT22;6041;52.130;5.584;2022-07-17T03:02:11;11.40;99.90
11963;DHT22;6041;52.130;5.584;2022-07-17T03:04:39;11.40;99.90
11963;DHT22;6041;52.130;5.584;2022-07-17T03:07:06;11.40;99.90
11963;DHT22;6041;52.130;5.584;2022-07-17T03:09:32;11.30;99.90
11963;DHT22;6041;52.130;5.584;2022-07-17T03:11:59;11.30;99.90
11963;DHT22;6041;52.130;5.584;2022-07-17T03:14:26;11.30;99.90
11963;DHT22;6041;52.130;5.584;2022-07-17T03:16:53;11.40;99.90
11963;DHT22;6041;52.130;5.584;2022-07-17T03:19:19;11.40;99.90
11963;DHT22;6041;52.130;5.584;2022-07-17T03:21:47;11.30;99.90
11963;DHT22;6041;52.130;5.584;2022-07-17T03:24:14;11.30;99.90
11963;DHT22;6041;52.130;5.584;2022-07-17T03:26:41;11.30;99.90
11963;DHT22;6041;52.130;5.584;2022-07-17T03:29:08;11.30;99.90
11963;DHT22;6041;52.130;5.584;2022-07-17T03:31:34;11.30;99.90
11963;DHT22;6041;52.130;5.584;2022-07-17T03:34:01;11.30;99.90
11963;DHT22;6041;52.130;5.584;2022-07-17T03:36:28;11.20;99.90
11963;DHT22;6041;52.130;5.584;2022-07-17T03:38:56;11.20;99.90
11963;DHT22;6041;52.130;5.584;2022-07-17T03:41:23;11.30;99.90
11963;DHT22;6041;52.130;5.584;2022-07-17T03:43:49;11.30;99.90
11963;DHT22;6041;52.130;5.584;2022-07-17T03:46:16;11.30;99.90
11963;DHT22;6041;52.130;5.584;2022-07-17T03:48:43;11.30;99.90
11963;DHT22;6041;52.130;5.584;2022-07-17T03:51:09;11.30;99.90
11963;DHT22;6041;52.130;5.584;2022-07-17T03:53:36;11.30;99.90
11963;DHT22;6041;52.130;5.584;2022-07-17T03:56:05;11.30;99.90
11963;DHT22;6041;52.130;5.584;2022-07-17T03:58:32;11.40;99.90
11963;DHT22;6041;52.130;5.584;2022-07-17T04:00:59;11.40;99.90
11963;DHT22;6041;52.130;5.584;2022-07-17T04:03:26;11.40;99.90
11963;DHT22;6041;52.130;5.584;2022-07-17T04:05:53;11.40;99.90
11963;DHT22;6041;52.130;5.584;2022-07-17T04:08:20;11.40;99.90
11963;DHT22;6041;52.130;5.584;2022-07-17T04:10:47;11.50;99.90
11963;DHT22;6041;52.130;5.584;2022-07-17T04:13:15;11.50;99.90
11963;DHT22;6041;52.130;5.584;2022-07-17T04:15:42;11.50;99.90
11963;DHT22;6041;52.130;5.584;2022-07-17T04:18:22;11.50;99.90
11963;DHT22;6041;52.130;5.584;2022-07-17T04:20:49;11.50;99.90
11963;DHT22;6041;52.130;5.584;2022-07-17T04:23:16;11.50;99.90
11963;DHT22;6041;52.130;5.584;2022-07-17T04:25:44;11.50;99.90
11963;DHT22;6041;52.130;5.584;2022-07-17T04:28:11;11.50;99.90
11963;DHT22;6041;52.130;5.584;2022-07-17T04:30:39;11.60;99.90
11963;DHT22;6041;52.130;5.584;2022-07-17T04:33:06;11.60;99.90
11963;DHT22;6041;52.130;5.584;2022-07-17T04:35:33;11.70;99.90
11963;DHT22;6041;52.130;5.584;2022-07-17T04:38:00;11.70;99.90
11963;DHT22;6041;52.130;5.584;2022-07-17T04:40:27;11.80;99.90
11963;DHT22;6041;52.130;5.584;2022-07-17T04:42:54;11.80;99.90
11963;DHT22;6041;52.130;5.584;2022-07-17T04:45:20;11.90;99.90
11963;DHT22;6041;52.130;5.584;2022-07-17T04:47:49;12.00;99.90
11963;DHT22;6041;52.130;5.584;2022-07-17T04:50:16;11.90;99.90
11963;DHT22;6041;52.130;5.584;2022-07-17T04:52:42;11.90;99.90
11963;DHT22;6041;52.130;5.584;2022-07-17T04:55:09;11.90;99.90
11963;DHT22;6041;52.130;5.584;2022-07-17T04:57:36;11.90;99.90
11963;DHT22;6041;52.130;5.584;2022-07-17T05:00:03;11.90;99.90
11963;DHT22;6041;52.130;5.584;2022-07-17T05:02:30;11.90;99.90
11963;DHT22;6041;52.130;5.584;2022-07-17T05:04:58;12.00;99.90
11963;DHT22;6041;52.130;5.584;2022-07-17T05:07:25;12.00;99.90
11963;DHT22;6041;52.130;5.584;2022-07-17T05:09:52;12.00;99.90
11963;DHT22;6041;52.130;5.584;2022-07-17T05:12:19;12.10;99.90
11963;DHT22;6041;52.130;5.584;2022-07-17T05:14:46;12.00;99.90
11963;DHT22;6041;52.130;5.584;2022-07-17T05:17:13;12.10;99.90
11963;DHT22;6041;52.130;5.584;2022-07-17T05:19:40;12.20;99.90
11963;DHT22;6041;52.130;5.584;2022-07-17T05:22:08;12.30;99.90
11963;DHT22;6041;52.130;5.584;2022-07-17T05:24:35;12.40;99.90
11963;DHT22;6041;52.130;5.584;2022-07-17T05:27:01;12.50;99.90
11963;DHT22;6041;52.130;5.584;2022-07-17T05:29:28;12.60;99.90
11963;DHT22;6041;52.130;5.584;2022-07-17T05:31:55;12.80;99.90
11963;DHT22;6041;52.130;5.584;2022-07-17T05:34:22;12.90;99.90
11963;DHT22;6041;52.130;5.584;2022-07-17T05:36:49;12.90;99.90
11963;DHT22;6041;52.130;5.584;2022-07-17T05:39:17;13.10;99.90
11963;DHT22;6041;52.130;5.584;2022-07-17T05:41:43;13.30;99.90
11963;DHT22;6041;52.130;5.584;2022-07-17T05:44:10;13.40;99.90
11963;DHT22;6041;52.130;5.584;2022-07-17T05:46:37;13.40;99.90
11963;DHT22;6041;52.130;5.584;2022-07-17T05:49:04;13.40;99.90
11963;DHT22;6041;52.130;5.584;2022-07-17T05:51:30;13.60;99.90
11963;DHT22;6041;52.130;5.584;2022-07-17T05:53:57;13.90;99.90
11963;DHT22;6041;52.130;5.584;2022-07-17T05:56:25;13.90;99.90
11963;DHT22;6041;52.130;5.584;2022-07-17T05:58:52;13.90;99.90
11963;DHT22;6041;52.130;5.584;2022-07-17T06:01:19;14.00;99.90
11963;DHT22;6041;52.130;5.584;2022-07-17T06:03:45;14.00;99.90
11963;DHT22;6041;52.130;5.584;2022-07-17T06:06:12;14.00;99.90
11963;DHT22;6041;52.130;5.584;2022-07-17T06:08:39;14.10;99.90
11963;DHT22;6041;52.130;5.584;2022-07-17T06:11:06;14.20;99.90
11963;DHT22;6041;52.130;5.584;2022-07-17T06:13:35;14.30;99.90
11963;DHT22;6041;52.130;5.584;2022-07-17T06:16:02;14.40;99.90
11963;DHT22;6041;52.130;5.584;2022-07-17T06:18:28;14.50;99.90
11963;DHT22;6041;52.130;5.584;2022-07-17T06:20:55;14.70;99.90
11963;DHT22;6041;52.130;5.584;2022-07-17T06:23:22;14.90;99.90
11963;DHT22;6041;52.130;5.584;2022-07-17T06:25:49;15.00;99.90
11963;DHT22;6041;52.130;5.584;2022-07-17T06:28:16;15.10;99.90
11963;DHT22;6041;52.130;5.584;2022-07-17T06:30:44;15.20;99.90
11963;DHT22;6041;52.130;5.584;2022-07-17T06:33:11;15.30;99.90
11963;DHT22;6041;52.130;5.584;2022-07-17T06:35:37;15.30;99.90
11963;DHT22;6041;52.130;5.584;2022-07-17T06:38:04;15.40;99.90
11963;DHT22;6041;52.130;5.584;2022-07-17T06:40:31;15.60;99.90
11963;DHT22;6041;52.130;5.584;2022-07-17T06:42:58;15.80;99.90
11963;DHT22;6041;52.130;5.584;2022-07-17T06:45:24;15.80;99.90
11963;DHT22;6041;52.130;5.584;2022-07-17T06:47:53;15.90;99.90
11963;DHT22;6041;52.130;5.584;2022-07-17T06:50:20;16.10;99.90
11963;DHT22;6041;52.130;5.584;2022-07-17T06:52:46;16.20;99.90
11963;DHT22;6041;52.130;5.584;2022-07-17T06:55:13;16.10;99.90
11963;DHT22;6041;52.130;5.584;2022-07-17T06:57:40;16.20;99.90
11963;DHT22;6041;52.130;5.584;2022-07-17T07:00:08;16.30;99.90
11963;DHT22;6041;52.130;5.584;2022-07-17T07:02:35;16.40;99.90
11963;DHT22;6041;52.130;5.584;2022-07-17T07:05:04;16.30;99.90
11963;DHT22;6041;52.130;5.584;2022-07-17T07:07:31;16.40;99.90
11963;DHT22;6041;52.130;5.584;2022-07-17T07:09:58;16.40;99.90
11963;DHT22;6041;52.130;5.584;2022-07-17T07:12:24;16.40;99.90
11963;DHT22;6041;52.130;5.584;2022-07-17T07:14:51;16.60;99.90
11963;DHT22;6041;52.130;5.584;2022-07-17T07:17:18;16.60;99.90
11963;DHT22;6041;52.130;5.584;2022-07-17T07:19:45;16.70;99.90
11963;DHT22;6041;52.130;5.584;2022-07-17T07:22:13;16.90;99.90
11963;DHT22;6041;52.130;5.584;2022-07-17T07:24:40;16.90;99.90
11963;DHT22;6041;52.130;5.584;2022-07-17T07:27:07;17.00;99.90
11963;DHT22;6041;52.130;5.584;2022-07-17T07:29:34;17.10;99.90
11963;DHT22;6041;52.130;5.584;2022-07-17T07:32:01;17.00;99.90
11963;DHT22;6041;52.130;5.584;2022-07-17T07:34:28;16.90;99.90
11963;DHT22;6041;52.130;5.584;2022-07-17T07:36:55;16.90;99.90
11963;DHT22;6041;52.130;5.584;2022-07-17T07:39:23;16.90;99.90
11963;DHT22;6041;52.130;5.584;2022-07-17T07:41:50;16.80;99.90
11963;DHT22;6041;52.130;5.584;2022-07-17T07:44:16;16.90;99.90
11963;DHT22;6041;52.130;5.584;2022-07-17T07:46:44;16.80;99.90
11963;DHT22;6041;52.130;5.584;2022-07-17T07:49:11;16.90;99.90
11963;DHT22;6041;52.130;5.584;2022-07-17T07:51:38;17.00;99.90
11963;DHT22;6041;52.130;5.584;2022-07-17T07:54:04;17.20;99.90
11963;DHT22;6041;52.130;5.584;2022-07-17T07:56:33;17.20;99.90
11963;DHT22;6041;52.130;5.584;2022-07-17T07:59:00;17.10;99.90
11963;DHT22;6041;52.130;5.584;2022-07-17T08:01:27;17.20;99.90
11963;DHT22;6041;52.130;5.584;2022-07-17T08:03:54;17.40;99.90
11963;DHT22;6041;52.130;5.584;2022-07-17T08:06:21;17.60;99.90
11963;DHT22;6041;52.130;5.584;2022-07-17T08:08:48;17.60;99.90
11963;DHT22;6041;52.130;5.584;2022-07-17T08:11:14;17.80;99.90
11963;DHT22;6041;52.130;5.584;2022-07-17T08:13:42;18.00;99.90
11963;DHT22;6041;52.130;5.584;2022-07-17T08:16:09;18.10;99.90
11963;DHT22;6041;52.130;5.584;2022-07-17T08:18:36;18.10;99.90
11963;DHT22;6041;52.130;5.584;2022-07-17T08:21:03;17.90;99.90
11963;DHT22;6041;52.130;5.584;2022-07-17T08:23:30;17.90;99.90
11963;DHT22;6041;52.130;5.584;2022-07-17T08:25:57;18.20;99.90
11963;DHT22;6041;52.130;5.584;2022-07-17T08:28:24;18.40;99.90
11963;DHT22;6041;52.130;5.584;2022-07-17T08:30:52;18.50;99.90
11963;DHT22;6041;52.130;5.584;2022-07-17T08:33:19;18.40;99.90
11963;DHT22;6041;52.130;5.584;2022-07-17T08:35:45;18.50;99.90
11963;DHT22;6041;52.130;5.584;2022-07-17T08:38:12;18.70;99.90
11963;DHT22;6041;52.130;5.584;2022-07-17T08:40:40;18.50;99.90
11963;DHT22;6041;52.130;5.584;2022-07-17T08:43:09;18.60;99.90
11963;DHT22;6041;52.130;5.584;2022-07-17T08:45:39;18.50;99.90
11963;DHT22;6041;52.130;5.584;2022-07-17T08:48:12;18.50;99.90
11963;DHT22;6041;52.130;5.584;2022-07-17T08:50:40;18.70;99.90
11963;DHT22;6041;52.130;5.584;2022-07-17T08:53:07;18.90;99.90
11963;DHT22;6041;52.130;5.584;2022-07-17T08:55:34;18.90;99.90
11963;DHT22;6041;52.130;5.584;2022-07-17T08:58:01;18.90;99.90
11963;DHT22;6041;52.130;5.584;2022-07-17T09:00:30;19.00;99.90
11963;DHT22;6041;52.130;5.584;2022-07-17T09:02:58;19.00;99.90
11963;DHT22;6041;52.130;5.584;2022-07-17T09:05:28;18.90;99.90
11963;DHT22;6041;52.130;5.584;2022-07-17T09:07:56;19.00;99.90
11963;DHT22;6041;52.130;5.584;2022-07-17T09:10:31;19.30;99.90
11963;DHT22;6041;52.130;5.584;2022-07-17T09:12:58;19.40;99.90
11963;DHT22;6041;52.130;5.584;2022-07-17T09:15:26;19.30;99.90
11963;DHT22;6041;52.130;5.584;2022-07-17T09:17:55;19.30;99.90
11963;DHT22;6041;52.130;5.584;2022-07-17T09:20:23;19.40;99.90
11963;DHT22;6041;52.130;5.584;2022-07-17T09:22:58;19.50;99.90
11963;DHT22;6041;52.130;5.584;2022-07-17T09:25:36;19.70;99.90
11963;DHT22;6041;52.130;5.584;2022-07-17T09:28:05;19.60;99.90
11963;DHT22;6041;52.130;5.584;2022-07-17T09:30:34;19.60;99.90
11963;DHT22;6041;52.130;5.584;2022-07-17T09:33:01;19.60;99.90
11963;DHT22;6041;52.130;5.584;2022-07-17T09:35:29;19.70;99.90
11963;DHT22;6041;52.130;5.584;2022-07-17T09:37:58;19.80;99.90
11963;DHT22;6041;52.130;5.584;2022-07-17T09:40:24;20.10;99.90
11963;DHT22;6041;52.130;5.584;2022-07-17T09:43:11;20.30;99.90
11963;DHT22;6041;52.130;5.584;2022-07-17T09:45:38;20.50;99.90
11963;DHT22;6041;52.130;5.584;2022-07-17T09:48:06;20.30;99.90
11963;DHT22;6041;52.130;5.584;2022-07-17T09:50:35;20.30;99.90
11963;DHT22;6041;52.130;5.584;2022-07-17T09:53:05;20.50;99.90
11963;DHT22;6041;52.130;5.584;2022-07-17T09:55:34;20.40;99.90
11963;DHT22;6041;52.130;5.584;2022-07-17T09:58:02;20.50;99.90
11963;DHT22;6041;52.130;5.584;2022-07-17T10:00:30;20.60;99.90
11963;DHT22;6041;52.130;5.584;2022-07-17T10:02:57;20.20;99.90
11963;DHT22;6041;52.130;5.584;2022-07-17T10:05:24;20.50;99.90
11963;DHT22;6041;52.130;5.584;2022-07-17T10:07:51;20.50;99.90
11963;DHT22;6041;52.130;5.584;2022-07-17T10:10:19;20.00;99.90
11963;DHT22;6041;52.130;5.584;2022-07-17T10:12:48;20.00;99.90
11963;DHT22;6041;52.130;5.584;2022-07-17T10:15:16;19.90;99.90
11963;DHT22;6041;52.130;5.584;2022-07-17T10:17:45;20.10;99.90
11963;DHT22;6041;52.130;5.584;2022-07-17T10:20:23;20.40;99.90
11963;DHT22;6041;52.130;5.584;2022-07-17T10:22:50;20.80;99.90
11963;DHT22;6041;52.130;5.584;2022-07-17T10:25:19;20.60;99.90
11963;DHT22;6041;52.130;5.584;2022-07-17T10:27:49;20.30;99.90
11963;DHT22;6041;52.130;5.584;2022-07-17T10:30:22;20.60;99.90
11963;DHT22;6041;52.130;5.584;2022-07-17T10:32:54;20.90;99.90
11963;DHT22;6041;52.130;5.584;2022-07-17T10:35:22;21.20;99.90
11963;DHT22;6041;52.130;5.584;2022-07-17T10:37:49;21.20;99.90
11963;DHT22;6041;52.130;5.584;2022-07-17T10:40:19;21.50;99.90
11963;DHT22;6041;52.130;5.584;2022-07-17T10:42:52;21.60;99.90
11963;DHT22;6041;52.130;5.584;2022-07-17T10:45:20;21.70;99.90
11963;DHT22;6041;52.130;5.584;2022-07-17T10:47:51;21.70;99.90
11963;DHT22;6041;52.130;5.584;2022-07-17T10:50:21;21.70;99.90
11963;DHT22;6041;52.130;5.584;2022-07-17T10:53:05;22.00;99.90
11963;DHT22;6041;52.130;5.584;2022-07-17T10:55:35;21.90;99.90
11963;DHT22;6041;52.130;5.584;2022-07-17T10:58:02;21.90;99.90
11963;DHT22;6041;52.130;5.584;2022-07-17T11:00:29;22.10;99.90
11963;DHT22;6041;52.130;5.584;2022-07-17T11:02:56;22.40;99.90
11963;DHT22;6041;52.130;5.584;2022-07-17T11:05:23;22.40;99.90
11963;DHT22;6041;52.130;5.584;2022-07-17T11:07:51;22.50;99.90
11963;DHT22;6041;52.130;5.584;2022-07-17T11:10:18;22.30;99.90
11963;DHT22;6041;52.130;5.584;2022-07-17T11:12:46;21.90;99.90
11963;DHT22;6041;52.130;5.584;2022-07-17T11:15:13;22.30;99.90
11963;DHT22;6041;52.130;5.584;2022-07-17T11:17:44;22.40;99.90
11963;DHT22;6041;52.130;5.584;2022-07-17T11:20:12;22.50;99.90
11963;DHT22;6041;52.130;5.584;2022-07-17T11:22:39;22.30;99.90
11963;DHT22;6041;52.130;5.584;2022-07-17T11:25:07;22.60;99.90
11963;DHT22;6041;52.130;5.584;2022-07-17T11:27:35;22.90;99.90
11963;DHT22;6041;52.130;5.584;2022-07-17T11:30:11;22.80;99.90
11963;DHT22;6041;52.130;5.584;2022-07-17T11:32:39;22.70;99.90
11963;DHT22;6041;52.130;5.584;2022-07-17T11:35:20;22.30;99.90
11963;DHT22;6041;52.130;5.584;2022-07-17T11:37:49;22.60;99.90
11963;DHT22;6041;52.130;5.584;2022-07-17T11:40:16;22.60;99.90
11963;DHT22;6041;52.130;5.584;2022-07-17T11:42:43;22.70;99.90
11963;DHT22;6041;52.130;5.584;2022-07-17T11:45:14;23.00;99.90
11963;DHT22;6041;52.130;5.584;2022-07-17T11:47:41;22.50;99.90
11963;DHT22;6041;52.130;5.584;2022-07-17T11:50:10;22.40;99.90
11963;DHT22;6041;52.130;5.584;2022-07-17T11:52:42;22.40;99.90
11963;DHT22;6041;52.130;5.584;2022-07-17T11:55:09;22.70;99.90
11963;DHT22;6041;52.130;5.584;2022-07-17T11:57:45;23.10;99.90
11963;DHT22;6041;52.130;5.584;2022-07-17T12:00:15;23.40;99.90
11963;DHT22;6041;52.130;5.584;2022-07-17T12:02:43;23.40;99.90
11963;DHT22;6041;52.130;5.584;2022-07-17T12:05:10;23.50;99.90
11963;DHT22;6041;52.130;5.584;2022-07-17T12:07:42;23.40;99.90
11963;DHT22;6041;52.130;5.584;2022-07-17T12:10:17;23.50;99.90
11963;DHT22;6041;52.130;5.584;2022-07-17T12:12:52;23.30;99.90
11963;DHT22;6041;52.130;5.584;2022-07-17T12:15:21;23.10;99.90
11963;DHT22;6041;52.130;5.584;2022-07-17T12:17:48;23.30;99.90
11963;DHT22;6041;52.130;5.584;2022-07-17T12:20:15;23.60;99.90
11963;DHT22;6041;52.130;5.584;2022-07-17T12:22:43;23.90;99.90
11963;DHT22;6041;52.130;5.584;2022-07-17T12:25:21;24.00;99.90
11963;DHT22;6041;52.130;5.584;2022-07-17T12:27:48;23.20;99.90
11963;DHT22;6041;52.130;5.584;2022-07-17T12:30:14;22.90;99.90
11963;DHT22;6041;52.130;5.584;2022-07-17T12:32:43;23.00;99.90
11963;DHT22;6041;52.130;5.584;2022-07-17T12:35:09;23.10;99.90
11963;DHT22;6041;52.130;5.584;2022-07-17T12:37:36;23.20;99.90
11963;DHT22;6041;52.130;5.584;2022-07-17T12:40:04;23.10;99.90
11963;DHT22;6041;52.130;5.584;2022-07-17T12:42:31;23.10;99.90
11963;DHT22;6041;52.130;5.584;2022-07-17T12:44:58;23.10;99.90
11963;DHT22;6041;52.130;5.584;2022-07-17T12:47:24;23.40;99.90
11963;DHT22;6041;52.130;5.584;2022-07-17T12:49:53;23.40;99.90
11963;DHT22;6041;52.130;5.584;2022-07-17T12:52:20;23.90;99.90
11963;DHT22;6041;52.130;5.584;2022-07-17T12:54:47;24.20;99.90
11963;DHT22;6041;52.130;5.584;2022-07-17T12:57:14;24.30;99.90
11963;DHT22;6041;52.130;5.584;2022-07-17T12:59:44;24.60;99.90
11963;DHT22;6041;52.130;5.584;2022-07-17T13:02:11;24.80;99.90
11963;DHT22;6041;52.130;5.584;2022-07-17T13:04:38;24.70;99.90
11963;DHT22;6041;52.130;5.584;2022-07-17T13:07:07;24.50;99.90
11963;DHT22;6041;52.130;5.584;2022-07-17T13:09:34;24.50;99.90
11963;DHT22;6041;52.130;5.584;2022-07-17T13:12:02;24.30;99.90
11963;DHT22;6041;52.130;5.584;2022-07-17T13:14:29;24.00;99.90
11963;DHT22;6041;52.130;5.584;2022-07-17T13:16:56;24.30;99.90
11963;DHT22;6041;52.130;5.584;2022-07-17T13:19:23;24.20;99.90
11963;DHT22;6041;52.130;5.584;2022-07-17T13:21:50;24.90;99.90
11963;DHT22;6041;52.130;5.584;2022-07-17T13:24:18;25.10;99.90
11963;DHT22;6041;52.130;5.584;2022-07-17T13:26:45;25.10;99.90
11963;DHT22;6041;52.130;5.584;2022-07-17T13:29:12;25.60;99.90
11963;DHT22;6041;52.130;5.584;2022-07-17T13:31:39;25.70;99.90
11963;DHT22;6041;52.130;5.584;2022-07-17T13:34:05;25.90;99.90
11963;DHT22;6041;52.130;5.584;2022-07-17T13:36:32;25.60;99.90
11963;DHT22;6041;52.130;5.584;2022-07-17T13:38:59;25.40;99.90
11963;DHT22;6041;52.130;5.584;2022-07-17T13:41:27;25.60;99.90
11963;DHT22;6041;52.130;5.584;2022-07-17T13:43:54;25.90;99.90
11963;DHT22;6041;52.130;5.584;2022-07-17T13:46:21;26.10;99.90
11963;DHT22;6041;52.130;5.584;2022-07-17T13:48:47;25.70;99.90
11963;DHT22;6041;52.130;5.584;2022-07-17T13:51:14;25.20;99.90
11963;DHT22;6041;52.130;5.584;2022-07-17T13:53:41;25.00;99.90
11963;DHT22;6041;52.130;5.584;2022-07-17T13:56:08;25.30;99.90
11963;DHT22;6041;52.130;5.584;2022-07-17T13:58:36;25.70;99.90
11963;DHT22;6041;52.130;5.584;2022-07-17T14:01:03;26.00;99.90
11963;DHT22;6041;52.130;5.584;2022-07-17T14:03:30;26.00;99.90
11963;DHT22;6041;52.130;5.584;2022-07-17T14:05:57;26.10;99.90
11963;DHT22;6041;52.130;5.584;2022-07-17T14:08:24;26.30;99.90
11963;DHT22;6041;52.130;5.584;2022-07-17T14:10:51;26.80;99.90
11963;DHT22;6041;52.130;5.584;2022-07-17T14:13:18;26.70;99.90
11963;DHT22;6041;52.130;5.584;2022-07-17T14:15:46;26.40;99.90
11963;DHT22;6041;52.130;5.584;2022-07-17T14:18:13;26.40;99.90
11963;DHT22;6041;52.130;5.584;2022-07-17T14:20:40;26.70;99.90
11963;DHT22;6041;52.130;5.584;2022-07-17T14:23:07;26.50;99.90
11963;DHT22;6041;52.130;5.584;2022-07-17T14:25:34;26.50;99.90
11963;DHT22;6041;52.130;5.584;2022-07-17T14:28:00;26.40;99.90
11963;DHT22;6041;52.130;5.584;2022-07-17T14:30:29;26.70;99.90
11963;DHT22;6041;52.130;5.584;2022-07-17T14:32:58;27.00;99.90
11963;DHT22;6041;52.130;5.584;2022-07-17T14:35:25;27.30;99.90
11963;DHT22;6041;52.130;5.584;2022-07-17T14:37:52;26.90;99.90
11963;DHT22;6041;52.130;5.584;2022-07-17T14:40:19;26.50;99.90
11963;DHT22;6041;52.130;5.584;2022-07-17T14:42:46;27.00;99.90
11963;DHT22;6041;52.130;5.584;2022-07-17T14:45:12;26.40;99.90
11963;DHT22;6041;52.130;5.584;2022-07-17T14:47:39;26.20;99.90
11963;DHT22;6041;52.130;5.584;2022-07-17T14:50:09;26.40;99.90
11963;DHT22;6041;52.130;5.584;2022-07-17T14:52:36;27.80;99.90
11963;DHT22;6041;52.130;5.584;2022-07-17T14:55:04;27.40;99.90
11963;DHT22;6041;52.130;5.584;2022-07-17T14:57:31;27.00;99.90
11963;DHT22;6041;52.130;5.584;2022-07-17T14:59:58;27.30;99.90
11963;DHT22;6041;52.130;5.584;2022-07-17T15:02:24;27.00;99.90
11963;DHT22;6041;52.130;5.584;2022-07-17T15:04:51;27.20;99.90
11963;DHT22;6041;52.130;5.584;2022-07-17T15:07:19;27.30;99.90
11963;DHT22;6041;52.130;5.584;2022-07-17T15:09:46;27.70;99.90
11963;DHT22;6041;52.130;5.584;2022-07-17T15:12:13;27.10;99.90
11963;DHT22;6041;52.130;5.584;2022-07-17T15:14:39;28.10;99.90
11963;DHT22;6041;52.130;5.584;2022-07-17T15:17:06;27.50;99.90
11963;DHT22;6041;52.130;5.584;2022-07-17T15:19:33;27.80;99.90
11963;DHT22;6041;52.130;5.584;2022-07-17T15:22:00;28.90;99.90
11963;DHT22;6041;52.130;5.584;2022-07-17T15:24:28;30.00;99.90
11963;DHT22;6041;52.130;5.584;2022-07-17T15:26:55;29.80;99.90
11963;DHT22;6041;52.130;5.584;2022-07-17T15:29:22;29.20;99.90
11963;DHT22;6041;52.130;5.584;2022-07-17T15:31:48;30.00;99.90
11963;DHT22;6041;52.130;5.584;2022-07-17T15:34:15;29.90;99.90
11963;DHT22;6041;52.130;5.584;2022-07-17T15:36:42;31.10;99.90
11963;DHT22;6041;52.130;5.584;2022-07-17T15:39:09;31.70;99.90
11963;DHT22;6041;52.130;5.584;2022-07-17T15:41:37;32.10;99.90
11963;DHT22;6041;52.130;5.584;2022-07-17T15:44:04;31.20;99.90
11963;DHT22;6041;52.130;5.584;2022-07-17T15:46:31;31.40;99.90